createdAt,value
2022-09-30T00:01:39.886Z,19.19
2022-09-30T00:06:35.290Z,19.26
2022-09-30T00:11:31.242Z,19.16
2022-09-30T00:16:25.109Z,18.83
2022-09-30T00:21:19.822Z,18.72
2022-09-30T00:26:15.162Z,18.85
2022-09-30T00:31:10.216Z,18.37
2022-09-30T00:36:04.164Z,18.33
2022-09-30T00:40:59.815Z,18.24
2022-09-30T00:45:57.988Z,18.69
2022-09-30T00:50:55.631Z,18.58
2022-09-30T00:55:56.059Z,18.33
2022-09-30T01:00:52.797Z,18.55
2022-09-30T01:05:46.041Z,18.49
2022-09-30T01:10:39.245Z,18.42
2022-09-30T01:15:52.381Z,18.06
2022-09-30T01:21:14.436Z,18.13
2022-09-30T01:26:36.377Z,18.27
2022-09-30T01:31:44.412Z,18.15
2022-09-30T01:36:54.437Z,18.05
2022-09-30T01:41:54.773Z,18.28
2022-09-30T01:46:56.298Z,18.09
2022-09-30T01:51:56.826Z,17.44
2022-09-30T01:56:54.058Z,17.78
2022-09-30T02:01:55.172Z,17.82
2022-09-30T02:06:53.360Z,17.87
2022-09-30T02:11:46.526Z,17.84
2022-09-30T02:16:42.000Z,17.93
2022-09-30T02:21:41.424Z,17.94
2022-09-30T02:26:38.813Z,17.94
2022-09-30T02:31:35.509Z,17.97
2022-09-30T02:36:33.447Z,17.97
2022-09-30T02:41:32.047Z,17.93
2022-09-30T02:46:33.312Z,17.87
2022-09-30T02:51:40.149Z,17.67
2022-09-30T02:56:50.372Z,17.72
2022-09-30T03:01:44.835Z,17.40
2022-09-30T03:06:38.841Z,17.66
2022-09-30T03:11:34.039Z,17.39
2022-09-30T03:16:41.782Z,17.54
2022-09-30T03:21:46.915Z,17.52
2022-09-30T03:26:53.652Z,17.43
2022-09-30T03:31:58.918Z,17.20
2022-09-30T03:37:04.355Z,17.29
2022-09-30T03:42:09.737Z,16.87
2022-09-30T03:47:07.479Z,17.01
2022-09-30T03:52:06.201Z,17.11
2022-09-30T03:57:05.332Z,17.05
2022-09-30T04:01:58.626Z,16.97
2022-09-30T04:06:51.891Z,16.92
2022-09-30T04:11:45.169Z,16.86
2022-09-30T04:16:39.973Z,16.56
2022-09-30T04:21:33.263Z,16.87
2022-09-30T04:26:26.587Z,16.61
2022-09-30T04:31:21.537Z,16.86
2022-09-30T04:36:16.479Z,16.99
2022-09-30T04:41:14.266Z,17.04
2022-09-30T04:46:07.977Z,17.00
2022-09-30T04:51:01.352Z,17.11
2022-09-30T04:56:01.562Z,17.11
2022-09-30T05:01:01.105Z,17.04
2022-09-30T05:05:56.543Z,16.11
2022-09-30T05:10:57.429Z,15.82
2022-09-30T05:15:52.559Z,16.85
2022-09-30T05:20:45.716Z,16.69
2022-09-30T05:25:38.871Z,16.88
2022-09-30T05:30:32.063Z,16.94
2022-09-30T05:35:26.815Z,17.00
2022-09-30T05:40:20.066Z,17.05
2022-09-30T05:45:13.345Z,16.75
2022-09-30T05:50:07.388Z,17.45
2022-09-30T05:55:02.135Z,17.58
2022-09-30T05:59:55.437Z,17.46
2022-09-30T06:04:48.605Z,18.23
2022-09-30T06:09:41.942Z,18.05
2022-09-30T06:14:36.886Z,18.15
2022-09-30T06:19:31.638Z,18.25
2022-09-30T06:24:24.997Z,18.56
2022-09-30T06:29:19.762Z,18.59
2022-09-30T06:34:16.990Z,19.26
2022-09-30T06:39:13.522Z,19.01
2022-09-30T06:44:08.020Z,19.28
2022-09-30T06:49:12.150Z,19.75
2022-09-30T06:54:09.248Z,19.87
2022-09-30T06:59:02.528Z,19.93
2022-09-30T07:03:58.160Z,20.28
2022-09-30T07:08:51.813Z,19.89
2022-09-30T07:13:47.201Z,20.92
2022-09-30T07:18:42.397Z,20.37
2022-09-30T07:23:35.658Z,21.28
2022-09-30T07:28:31.498Z,21.62
2022-09-30T07:33:31.320Z,21.88
2022-09-30T07:38:25.682Z,22.17
2022-09-30T07:43:21.781Z,22.23
2022-09-30T07:48:35.057Z,22.66
2022-09-30T07:53:29.608Z,22.95
2022-09-30T07:58:23.085Z,22.66
2022-09-30T08:03:16.503Z,23.40
2022-09-30T08:08:09.618Z,23.59
2022-09-30T08:13:06.394Z,23.73
2022-09-30T08:17:59.652Z,23.65
2022-09-30T08:22:54.673Z,23.89
2022-09-30T08:27:47.847Z,24.20
2022-09-30T08:32:42.456Z,24.48
2022-09-30T08:37:35.686Z,24.76
2022-09-30T08:42:49.660Z,25.62
2022-09-30T08:47:53.459Z,26.51
2022-09-30T08:52:49.547Z,27.05
2022-09-30T08:57:47.664Z,27.88
2022-09-30T09:02:50.279Z,28.41
2022-09-30T09:07:54.265Z,28.77
2022-09-30T09:12:57.450Z,28.94
2022-09-30T09:18:41.811Z,28.88
2022-09-30T09:23:36.646Z,29.04
2022-09-30T09:28:37.796Z,28.21
2022-09-30T09:33:33.523Z,29.17
2022-09-30T09:38:36.098Z,29.05
2022-09-30T09:43:44.166Z,29.02
2022-09-30T09:48:37.411Z,28.73
2022-09-30T09:53:49.230Z,28.65
2022-09-30T09:59:11.402Z,28.43
2022-09-30T10:04:11.184Z,28.52
2022-09-30T10:09:07.546Z,28.44
2022-09-30T10:14:02.548Z,28.79
2022-09-30T10:18:56.208Z,28.75
2022-09-30T10:23:49.812Z,28.79
2022-09-30T10:28:47.930Z,28.57
2022-09-30T10:33:47.063Z,28.76
2022-09-30T10:38:53.597Z,28.76
2022-09-30T10:43:53.722Z,28.90
2022-09-30T10:48:51.172Z,28.95
2022-09-30T10:53:45.531Z,29.02
2022-09-30T10:58:47.725Z,28.95
2022-09-30T11:03:49.845Z,28.73
2022-09-30T11:08:50.146Z,29.03
2022-09-30T11:13:49.738Z,29.08
2022-09-30T11:18:50.800Z,28.63
2022-09-30T11:23:50.397Z,29.42
2022-09-30T11:29:00.695Z,29.71
2022-09-30T11:34:23.944Z,29.74
2022-09-30T11:39:47.604Z,30.07
2022-09-30T11:44:44.440Z,29.94
2022-09-30T11:50:06.962Z,30.07
2022-09-30T11:55:31.289Z,30.02
2022-09-30T12:00:25.038Z,30.02
2022-09-30T12:05:21.705Z,29.54
2022-09-30T12:10:23.816Z,29.92
2022-09-30T12:15:21.591Z,29.95
2022-09-30T12:20:22.246Z,29.86
2022-09-30T12:25:21.767Z,30.15
2022-09-30T12:30:20.538Z,29.98
2022-09-30T12:35:33.329Z,30.20
2022-09-30T12:40:53.005Z,30.36
2022-09-30T12:46:15.983Z,30.66
2022-09-30T12:51:22.647Z,30.09
2022-09-30T12:56:20.202Z,32.24
2022-09-30T13:01:16.981Z,33.18
2022-09-30T13:06:10.539Z,34.44
2022-09-30T13:11:08.038Z,33.93
2022-09-30T13:16:06.661Z,32.74
2022-09-30T13:21:20.227Z,31.05
2022-09-30T13:26:45.630Z,31.17
2022-09-30T13:32:07.966Z,30.98
2022-09-30T13:37:03.030Z,31.18
2022-09-30T13:42:11.951Z,31.38
2022-09-30T13:47:19.213Z,32.12
2022-09-30T13:52:35.343Z,32.48
2022-09-30T13:57:36.633Z,32.43
2022-09-30T14:03:08.383Z,31.23
2022-09-30T14:08:35.033Z,31.30
2022-09-30T14:13:47.369Z,30.68
2022-09-30T14:19:11.328Z,30.16
2022-09-30T14:24:12.303Z,30.07
2022-09-30T14:29:13.906Z,29.69
2022-09-30T14:34:12.461Z,29.17
2022-09-30T14:39:14.528Z,28.46
2022-09-30T14:44:08.960Z,28.38
2022-09-30T14:49:06.834Z,28.70
2022-09-30T14:54:02.352Z,28.52
2022-09-30T14:58:58.115Z,27.91
2022-09-30T15:03:55.754Z,28.40
2022-09-30T15:08:50.829Z,28.30
2022-09-30T15:13:46.251Z,28.34
2022-09-30T15:18:47.372Z,28.27
2022-09-30T15:23:43.963Z,27.71
2022-09-30T15:28:38.301Z,27.94
2022-09-30T15:33:34.470Z,27.87
2022-09-30T15:38:34.705Z,27.58
2022-09-30T15:43:35.807Z,27.62
2022-09-30T15:48:36.439Z,27.35
2022-09-30T15:53:32.805Z,27.23
2022-09-30T15:58:33.948Z,26.83
2022-09-30T16:03:29.542Z,26.33
2022-09-30T16:08:28.744Z,26.57
2022-09-30T16:13:26.892Z,26.19
2022-09-30T16:18:24.918Z,26.09
2022-09-30T16:23:31.481Z,25.94
2022-09-30T16:28:27.868Z,26.00
2022-09-30T16:33:23.925Z,25.88
2022-09-30T16:38:20.852Z,25.76
2022-09-30T16:43:27.144Z,25.07
2022-09-30T16:48:21.942Z,25.42
2022-09-30T16:53:15.561Z,24.98
2022-09-30T16:58:13.434Z,25.26
2022-09-30T17:03:08.603Z,24.84
2022-09-30T17:08:02.760Z,24.59
2022-09-30T17:12:56.587Z,23.67
2022-09-30T17:17:50.541Z,24.75
2022-09-30T17:22:46.182Z,24.52
2022-09-30T17:27:40.066Z,24.06
2022-09-30T17:32:33.550Z,24.28
2022-09-30T17:37:27.751Z,24.30
2022-09-30T17:43:01.999Z,24.20
2022-09-30T17:47:55.507Z,24.14
2022-09-30T17:52:51.812Z,23.56
2022-09-30T17:57:53.330Z,23.98
2022-09-30T18:02:54.684Z,23.65
2022-09-30T18:07:48.624Z,23.12
2022-09-30T18:12:42.516Z,23.30
2022-09-30T18:17:37.271Z,23.60
2022-09-30T18:22:33.128Z,23.62
2022-09-30T18:27:28.100Z,23.11
2022-09-30T18:32:21.555Z,23.63
2022-09-30T18:37:16.415Z,23.56
2022-09-30T18:42:09.771Z,23.52
2022-09-30T18:47:03.224Z,22.88
2022-09-30T18:51:56.543Z,22.37
2022-09-30T18:56:56.588Z,22.45
2022-09-30T19:01:49.984Z,22.89
2022-09-30T19:06:45.238Z,22.74
2022-09-30T19:11:42.800Z,23.26
2022-09-30T19:16:38.906Z,23.21
2022-09-30T19:21:35.394Z,23.19
2022-09-30T19:26:30.381Z,22.85
2022-09-30T19:31:24.664Z,23.00
2022-09-30T19:36:19.432Z,22.98
2022-09-30T19:41:13.984Z,22.60
2022-09-30T19:46:10.663Z,22.51
2022-09-30T19:51:07.404Z,22.28
2022-09-30T19:56:08.023Z,21.65
2022-09-30T20:01:02.422Z,21.77
2022-09-30T20:06:03.834Z,21.10
2022-09-30T20:11:05.147Z,20.41
2022-09-30T20:16:03.872Z,21.21
2022-09-30T20:20:57.566Z,20.43
2022-09-30T20:25:52.976Z,20.95
2022-09-30T20:30:48.874Z,20.67
2022-09-30T20:35:42.155Z,19.41
2022-09-30T20:40:36.114Z,20.10
2022-09-30T20:45:29.805Z,19.55
2022-09-30T20:50:36.013Z,20.14
2022-09-30T20:55:31.637Z,19.27
2022-09-30T21:00:25.158Z,18.99
2022-09-30T21:05:28.033Z,19.58
2022-09-30T21:10:23.069Z,19.83
2022-09-30T21:15:20.633Z,19.79
2022-09-30T21:20:17.060Z,18.82
2022-09-30T21:25:13.232Z,19.38
2022-09-30T22:24:29.915Z,20.00
2022-09-30T22:29:23.248Z,19.65
2022-09-30T22:34:33.962Z,19.41
2022-09-30T22:39:28.853Z,18.79
2022-09-30T22:44:25.767Z,18.86
2022-09-30T22:49:20.185Z,18.76
2022-09-30T22:54:13.613Z,18.82
2022-09-30T22:59:08.383Z,18.31
2022-09-30T23:04:01.815Z,18.63
2022-09-30T23:08:56.097Z,18.77
2022-09-30T23:13:49.418Z,18.76
2022-09-30T23:18:46.407Z,18.51
2022-09-30T23:23:40.622Z,18.71
2022-09-30T23:28:34.181Z,18.71
2022-09-30T23:33:27.496Z,18.47
2022-09-30T23:38:22.442Z,18.67
2022-09-30T23:43:16.176Z,18.50
2022-09-30T23:48:09.815Z,18.54
2022-09-30T23:53:03.265Z,18.69
2022-09-30T23:57:58.024Z,18.07
